Jean, Nevada
Current Conditions -  °F | °C
As of 4:56 AM on Tuesday 21 Oct 2014 (Local Time) from KHND Reporting Station
Clear Clear  
Wind Chill: 67°   Ceiling: Unl
Heat Index: 67°   Visibility: 10mi
Dew Point: 38°   Wind: 9mph
Humidity: 34%   Direction: 170°S
Pressure: 29.87"   Gusts: NA
Location:  35.78°N, 115.32°W
Report Text: KHND 211156Z AUTO 17008KT 10SM CLR 19/03 A2987 RMK AO2 58002 T01940033 10233 20194 SLP095
Loading
Personal Weather Stations






























Interactive Weather Map
Tropical Storm Tracking
New forecast layout! Learn more

10-Day Weather Forecast

Advertisements
Track Severe Weather on mobile